createdAt,value
2022-10-20T00:02:43.194Z,16.98
2022-10-20T00:05:44.633Z,14.30
2022-10-20T00:08:47.033Z,11.65
2022-10-20T00:11:48.466Z,20.38
2022-10-20T00:14:49.862Z,12.68
2022-10-20T00:17:51.343Z,13.23
2022-10-20T00:20:53.733Z,14.57
2022-10-20T00:23:55.740Z,14.27
2022-10-20T00:26:57.159Z,26.45
2022-10-20T00:29:58.567Z,17.23
2022-10-20T00:33:00.321Z,16.83
2022-10-20T00:36:03.570Z,18.40
2022-10-20T00:39:05.668Z,15.75
2022-10-20T00:42:07.092Z,14.73
2022-10-20T00:45:20.978Z,16.95
2022-10-20T00:48:28.022Z,18.67
2022-10-20T00:51:33.133Z,17.10
2022-10-20T00:54:34.717Z,15.48
2022-10-20T00:57:37.350Z,19.48
2022-10-20T01:00:42.256Z,15.15
2022-10-20T01:03:50.298Z,18.55
2022-10-20T01:06:51.743Z,18.10
2022-10-20T01:09:53.640Z,20.73
2022-10-20T01:13:15.467Z,18.45
2022-10-20T01:16:45.964Z,15.80
2022-10-20T01:20:27.723Z,16.27
2022-10-20T01:23:48.207Z,17.98
2022-10-20T01:27:19.397Z,19.75
2022-10-20T01:30:22.829Z,15.82
2022-10-20T01:33:39.541Z,17.98
2022-10-20T01:36:52.736Z,17.98
2022-10-20T01:40:01.951Z,19.80
2022-10-20T01:43:08.943Z,19.27
2022-10-20T01:46:12.315Z,17.88
2022-10-20T01:49:14.681Z,17.47
2022-10-20T01:52:17.302Z,20.20
2022-10-20T01:55:18.709Z,21.90
2022-10-20T01:58:29.264Z,19.25
2022-10-20T02:01:57.911Z,21.90
2022-10-20T02:05:25.180Z,19.67
2022-10-20T02:08:38.210Z,20.60
2022-10-20T02:11:51.895Z,18.75
2022-10-20T02:14:54.655Z,26.90
2022-10-20T02:18:03.194Z,22.20
2022-10-20T02:21:06.563Z,20.05
2022-10-20T02:24:09.926Z,18.53
2022-10-20T02:27:25.412Z,22.00
2022-10-20T02:30:26.983Z,22.25
2022-10-20T02:33:30.177Z,26.02
2022-10-20T02:36:31.615Z,20.40
2022-10-20T02:39:33.035Z,22.83
2022-10-20T02:42:34.425Z,28.20
2022-10-20T02:45:35.804Z,23.90
2022-10-20T02:48:37.256Z,23.70
2022-10-20T02:51:38.672Z,25.40
2022-10-20T02:54:40.472Z,26.48
2022-10-20T02:57:41.869Z,32.47
2022-10-20T03:00:43.264Z,27.20
2022-10-20T03:03:44.670Z,26.27
2022-10-20T03:06:46.107Z,26.00
2022-10-20T03:09:47.572Z,25.35
2022-10-20T03:12:49.018Z,28.48
2022-10-20T03:15:50.454Z,23.83
2022-10-20T03:18:51.877Z,25.85
2022-10-20T03:21:53.310Z,28.83
2022-10-20T03:24:54.729Z,26.88
2022-10-20T03:27:56.117Z,24.00
2022-10-20T03:30:58.352Z,28.05
2022-10-20T03:33:59.772Z,28.33
2022-10-20T03:37:02.057Z,26.40
2022-10-20T03:40:03.767Z,25.05
2022-10-20T03:43:05.208Z,31.15
2022-10-20T03:46:11.442Z,28.63
2022-10-20T03:49:12.835Z,28.17
2022-10-20T03:52:14.282Z,33.63
2022-10-20T03:55:16.905Z,32.40
2022-10-20T03:58:18.686Z,28.77
2022-10-20T04:01:24.274Z,28.27
2022-10-20T04:04:25.724Z,26.65
2022-10-20T04:07:27.490Z,32.13
2022-10-20T04:10:28.884Z,28.58
2022-10-20T04:13:30.304Z,28.63
2022-10-20T04:16:31.825Z,26.52
2022-10-20T04:19:33.299Z,31.85
2022-10-20T04:22:35.119Z,29.13
2022-10-20T04:25:42.932Z,28.42
2022-10-20T04:28:44.371Z,26.88
2022-10-20T04:31:48.286Z,29.65
2022-10-20T04:34:50.811Z,30.77
2022-10-20T04:37:54.220Z,22.77
2022-10-20T04:41:00.299Z,31.70
2022-10-20T04:44:04.808Z,27.98
2022-10-20T04:47:06.200Z,27.50
2022-10-20T04:50:08.309Z,29.23
2022-10-20T04:53:09.731Z,28.92
2022-10-20T04:56:16.873Z,27.95
2022-10-20T04:59:18.270Z,27.45
2022-10-20T05:02:19.672Z,25.63
2022-10-20T05:05:21.125Z,27.20
2022-10-20T05:08:22.550Z,31.10
2022-10-20T05:11:25.468Z,33.55
2022-10-20T05:14:27.105Z,29.60
2022-10-20T05:17:29.960Z,27.58
2022-10-20T05:20:36.839Z,31.42
2022-10-20T05:23:47.577Z,25.92
2022-10-20T05:26:48.964Z,32.28
2022-10-20T05:29:50.458Z,27.52
2022-10-20T05:32:51.852Z,33.97
2022-10-20T05:35:53.240Z,27.33
2022-10-20T05:38:55.795Z,26.98
2022-10-20T05:41:57.215Z,25.30
2022-10-20T05:44:58.622Z,31.55
2022-10-20T05:48:00.012Z,28.23
2022-10-20T05:51:17.174Z,31.75
2022-10-20T05:54:18.810Z,35.92
2022-10-20T05:57:20.651Z,32.38
2022-10-20T06:00:22.178Z,30.60
2022-10-20T06:03:26.083Z,27.90
2022-10-20T06:06:30.774Z,30.10
2022-10-20T06:09:32.576Z,34.10
2022-10-20T06:12:35.402Z,35.08
2022-10-20T06:15:36.952Z,31.90
2022-10-20T06:18:39.157Z,35.92
2022-10-20T06:21:40.646Z,31.50
2022-10-20T06:24:42.041Z,30.83
2022-10-20T06:27:43.471Z,36.15
2022-10-20T06:30:44.873Z,34.45
2022-10-20T06:33:47.571Z,31.50
2022-10-20T06:36:50.014Z,33.47
2022-10-20T06:39:53.940Z,30.10
2022-10-20T06:46:04.782Z,29.08
2022-10-20T06:49:07.331Z,31.05
2022-10-20T06:52:08.750Z,38.05
2022-10-20T06:55:10.205Z,34.35
2022-10-20T06:58:11.738Z,32.60
2022-10-20T07:01:24.900Z,30.48
2022-10-20T07:04:26.345Z,30.85
2022-10-20T07:07:27.763Z,25.85
2022-10-20T07:10:29.209Z,26.25
2022-10-20T07:13:31.696Z,32.17
2022-10-20T07:16:34.873Z,27.52
2022-10-20T07:19:36.726Z,27.95
2022-10-20T07:22:38.645Z,27.08
2022-10-20T07:25:40.321Z,27.58
2022-10-20T07:28:44.576Z,28.58
2022-10-20T07:34:48.319Z,25.05
2022-10-20T07:37:50.293Z,27.00
2022-10-20T07:40:52.656Z,25.25
2022-10-20T07:43:55.504Z,24.98
2022-10-20T07:46:56.955Z,23.80
2022-10-20T07:49:58.453Z,24.17
2022-10-20T07:52:59.860Z,22.75
2022-10-20T07:56:01.290Z,20.27
2022-10-20T07:59:03.337Z,25.40
2022-10-20T08:02:04.934Z,24.40
2022-10-20T08:05:07.675Z,23.13
2022-10-20T08:08:09.073Z,23.98
2022-10-20T08:11:10.843Z,26.17
2022-10-20T08:14:12.289Z,25.00
2022-10-20T08:17:13.681Z,24.13
2022-10-20T08:20:27.226Z,19.60
2022-10-20T08:23:28.821Z,25.17
2022-10-20T08:26:30.214Z,21.40
2022-10-20T08:29:31.621Z,21.98
2022-10-20T08:32:33.224Z,24.52
2022-10-20T08:35:34.638Z,22.35
2022-10-20T08:38:37.815Z,22.05
2022-10-20T08:42:03.195Z,25.40
2022-10-20T08:45:06.607Z,23.38
2022-10-20T08:48:16.279Z,20.15
2022-10-20T08:51:38.140Z,23.45
2022-10-20T08:54:39.616Z,25.70
2022-10-20T08:57:41.384Z,23.73
2022-10-20T09:00:43.748Z,22.00
2022-10-20T09:03:45.386Z,22.85
2022-10-20T09:06:51.009Z,24.60
2022-10-20T09:09:54.332Z,23.33
2022-10-20T09:12:56.139Z,26.43
2022-10-20T09:16:02.900Z,23.33
2022-10-20T09:19:07.457Z,22.50
2022-10-20T09:22:13.355Z,21.45
2022-10-20T09:25:20.891Z,25.13
2022-10-20T09:28:25.768Z,23.10
2022-10-20T09:31:40.105Z,23.25
2022-10-20T09:34:41.517Z,22.42
2022-10-20T09:37:45.242Z,24.08
2022-10-20T09:41:02.135Z,23.27
2022-10-20T09:44:08.932Z,23.15
2022-10-20T09:47:13.487Z,29.88
2022-10-20T09:50:23.351Z,22.88
2022-10-20T09:53:40.896Z,23.30
2022-10-20T09:56:44.308Z,21.00
2022-10-20T09:59:48.217Z,23.02
2022-10-20T10:03:07.523Z,22.95
2022-10-20T10:06:21.175Z,20.40
2022-10-20T10:09:34.722Z,23.55
2022-10-20T10:12:36.888Z,23.10
2022-10-20T10:15:40.521Z,23.23
2022-10-20T10:18:53.967Z,23.30
2022-10-20T10:21:58.449Z,24.42
2022-10-20T10:25:01.045Z,23.23
2022-10-20T10:28:24.182Z,28.88
2022-10-20T10:31:26.381Z,29.10
2022-10-20T10:34:36.874Z,26.27
2022-10-20T10:37:41.351Z,27.60
2022-10-20T10:40:53.838Z,27.45
2022-10-20T10:44:07.505Z,26.88
2022-10-20T10:47:17.893Z,28.38
2022-10-20T10:50:58.834Z,28.05
2022-10-20T10:54:32.558Z,26.33
2022-10-20T10:57:46.380Z,23.50
2022-10-20T11:00:59.819Z,25.45
2022-10-20T11:04:36.938Z,25.50
2022-10-20T11:07:50.473Z,28.15
2022-10-20T11:11:06.576Z,30.60
2022-10-20T11:14:37.862Z,28.35
2022-10-20T11:18:02.866Z,24.45
2022-10-20T11:21:39.850Z,29.63
2022-10-20T11:24:56.494Z,27.67
2022-10-20T11:27:58.257Z,30.30
2022-10-20T11:31:00.721Z,32.80
2022-10-20T11:34:10.598Z,30.15
2022-10-20T11:37:17.993Z,26.52
2022-10-20T11:40:32.231Z,28.50
2022-10-20T11:43:46.549Z,24.63
2022-10-20T11:49:52.593Z,26.13
2022-10-20T11:53:17.966Z,26.17
2022-10-20T11:56:58.627Z,22.77
2022-10-20T12:00:02.921Z,30.58
2022-10-20T12:03:21.394Z,28.52
2022-10-20T12:06:41.570Z,24.50
2022-10-20T12:10:14.042Z,33.08
2022-10-20T12:13:40.794Z,28.38
2022-10-20T12:16:54.144Z,32.25
2022-10-20T12:20:20.283Z,30.98
2022-10-20T12:23:43.529Z,32.28
2022-10-20T12:27:06.802Z,32.00
2022-10-20T12:30:17.594Z,32.13
2022-10-20T12:33:34.074Z,31.10
2022-10-20T12:36:37.682Z,32.05
2022-10-20T12:39:39.434Z,33.28
2022-10-20T12:42:47.973Z,32.90
2022-10-20T12:45:50.898Z,36.42
2022-10-20T12:48:55.987Z,39.58
2022-10-20T12:51:59.082Z,29.25
2022-10-20T12:55:08.418Z,32.00
2022-10-20T12:58:34.216Z,38.45
2022-10-20T13:02:09.616Z,34.92
2022-10-20T13:05:13.764Z,35.83
2022-10-20T13:11:37.791Z,31.40
2022-10-20T13:14:48.331Z,35.03
2022-10-20T13:17:57.128Z,33.08
2022-10-20T13:21:08.404Z,33.30
2022-10-20T13:24:14.885Z,36.25
2022-10-20T13:27:16.545Z,38.97
2022-10-20T13:30:21.983Z,32.28
2022-10-20T13:34:08.924Z,39.00
2022-10-20T13:37:38.229Z,25.15
2022-10-20T13:40:56.144Z,29.55
2022-10-20T13:44:23.249Z,26.83
2022-10-20T13:47:45.761Z,24.80
2022-10-20T13:50:55.866Z,26.50
2022-10-20T13:54:01.762Z,24.98
2022-10-20T13:57:04.006Z,20.48
2022-10-20T14:00:21.884Z,20.42
2022-10-20T14:03:23.335Z,21.13
2022-10-20T14:06:29.888Z,26.95
2022-10-20T14:09:31.432Z,23.98
2022-10-20T14:12:33.297Z,20.67
2022-10-20T14:15:36.937Z,22.50
2022-10-20T14:18:38.391Z,23.33
2022-10-20T14:21:46.190Z,24.05
2022-10-20T14:24:50.196Z,25.20
2022-10-20T14:30:53.180Z,19.40
2022-10-20T14:33:54.657Z,25.40
2022-10-20T14:36:58.139Z,22.73
2022-10-20T14:40:02.285Z,24.50
2022-10-20T14:43:11.620Z,22.95
2022-10-20T14:46:28.638Z,23.83
2022-10-20T14:49:35.188Z,26.17
2022-10-20T14:52:37.194Z,25.35
2022-10-20T14:55:38.878Z,27.67
2022-10-20T14:59:01.532Z,29.05
2022-10-20T15:02:09.027Z,30.00
2022-10-20T15:05:37.062Z,31.25
2022-10-20T15:08:38.604Z,24.42
2022-10-20T15:11:40.034Z,28.33
2022-10-20T15:14:45.010Z,29.00
2022-10-20T15:17:49.089Z,28.00
2022-10-20T15:20:52.400Z,26.67
2022-10-20T15:23:53.801Z,25.30
2022-10-20T15:26:55.906Z,25.92
2022-10-20T15:29:57.375Z,26.15
2022-10-20T15:32:59.123Z,23.80
2022-10-20T15:36:00.525Z,23.63
2022-10-20T15:39:03.674Z,26.48
2022-10-20T15:42:05.094Z,23.20
2022-10-20T15:45:17.184Z,26.73
2022-10-20T15:48:18.677Z,25.92
2022-10-20T15:51:25.423Z,30.02
2022-10-20T15:54:26.869Z,36.70
2022-10-20T15:57:28.299Z,32.33
2022-10-20T16:00:29.772Z,32.08
2022-10-20T16:03:31.227Z,36.75
2022-10-20T16:06:32.681Z,32.97
2022-10-20T16:09:34.070Z,36.72
2022-10-20T16:12:35.965Z,33.75
2022-10-20T16:15:37.582Z,33.17
2022-10-20T16:18:39.050Z,37.75
2022-10-20T16:21:40.889Z,39.33
2022-10-20T16:24:42.295Z,37.45
2022-10-20T16:27:43.862Z,44.42
2022-10-20T16:30:45.322Z,41.92
2022-10-20T16:33:46.800Z,48.38
2022-10-20T16:36:49.813Z,56.53
2022-10-20T16:39:51.437Z,55.53
2022-10-20T16:42:52.855Z,58.42
2022-10-20T16:45:54.756Z,60.83
2022-10-20T16:48:56.156Z,62.72
2022-10-20T16:51:57.800Z,63.17
2022-10-20T16:54:59.342Z,63.17
2022-10-20T16:58:00.753Z,78.20
2022-10-20T17:01:07.607Z,73.07
2022-10-20T17:04:12.019Z,71.45
2022-10-20T17:07:13.884Z,81.55
2022-10-20T17:10:15.378Z,95.38
2022-10-20T17:13:17.210Z,84.25
2022-10-20T17:16:26.140Z,83.20
2022-10-20T17:19:30.325Z,93.10
2022-10-20T17:22:32.671Z,108.45
2022-10-20T17:25:34.307Z,103.80
2022-10-20T17:28:37.713Z,96.70
2022-10-20T17:31:39.172Z,112.05
2022-10-20T17:34:40.581Z,106.43
2022-10-20T17:37:42.008Z,105.05
2022-10-20T17:40:43.407Z,116.25
2022-10-20T17:43:44.868Z,108.13
2022-10-20T17:46:46.264Z,106.97
2022-10-20T17:49:47.682Z,100.63
2022-10-20T17:52:49.091Z,91.07
2022-10-20T17:55:50.485Z,95.82
2022-10-20T17:58:52.012Z,91.20
2022-10-20T18:01:53.452Z,92.28
2022-10-20T18:04:55.059Z,84.10
2022-10-20T18:07:56.489Z,102.20
2022-10-20T18:10:57.884Z,89.65
2022-10-20T18:14:00.101Z,94.57
2022-10-20T18:17:01.805Z,107.43
2022-10-20T18:20:04.144Z,101.47
2022-10-20T18:23:05.575Z,107.90
2022-10-20T18:26:09.750Z,105.50
2022-10-20T18:32:13.122Z,98.88
2022-10-20T18:35:14.673Z,99.45
2022-10-20T18:38:16.114Z,107.82
2022-10-20T18:41:28.781Z,112.40
2022-10-20T18:47:36.930Z,118.40
2022-10-20T18:50:38.521Z,111.03
2022-10-20T18:56:47.293Z,103.03
2022-10-20T18:59:49.850Z,103.57
2022-10-20T19:02:51.272Z,91.68
2022-10-20T19:05:58.931Z,93.78
2022-10-20T19:09:09.145Z,94.70
2022-10-20T19:12:10.889Z,93.75
2022-10-20T19:15:12.322Z,99.43
2022-10-20T19:18:14.915Z,100.00
2022-10-20T19:21:17.538Z,91.80
2022-10-20T19:24:22.440Z,97.95
2022-10-20T19:27:27.498Z,84.80
2022-10-20T19:30:33.981Z,83.43
2022-10-20T19:33:35.389Z,83.85
2022-10-20T19:36:36.985Z,73.32
2022-10-20T19:39:41.403Z,69.28
2022-10-20T19:42:42.812Z,70.93
2022-10-20T19:45:47.748Z,78.25
2022-10-20T19:48:51.477Z,84.10
2022-10-20T19:51:53.195Z,76.10
2022-10-20T19:54:54.576Z,72.60
2022-10-20T19:57:55.986Z,73.40
2022-10-20T20:00:58.927Z,70.45
2022-10-20T20:04:04.224Z,69.68
2022-10-20T20:07:08.427Z,66.05
2022-10-20T20:10:10.134Z,70.93
2022-10-20T20:13:11.522Z,63.50
2022-10-20T20:16:12.904Z,63.03
2022-10-20T20:19:15.427Z,63.80
2022-10-20T20:22:16.851Z,67.35
2022-10-20T20:25:18.262Z,65.55
2022-10-20T20:28:19.674Z,68.53
2022-10-20T20:31:21.977Z,68.00
2022-10-20T20:34:23.489Z,70.47
2022-10-20T20:37:25.289Z,73.97
2022-10-20T20:40:26.761Z,70.35
2022-10-20T20:43:28.993Z,64.43
2022-10-20T20:46:30.894Z,71.40
2022-10-20T20:49:33.125Z,66.10
2022-10-20T20:52:34.722Z,73.88
2022-10-20T20:55:36.103Z,70.80
2022-10-20T20:58:38.027Z,82.03
2022-10-20T21:01:39.435Z,77.22
2022-10-20T21:04:40.914Z,83.53
2022-10-20T21:07:42.297Z,78.40
2022-10-20T21:10:43.668Z,81.60
2022-10-20T21:13:45.897Z,85.68
2022-10-20T21:16:47.339Z,92.13
2022-10-20T21:19:48.747Z,94.68
2022-10-20T21:22:50.138Z,107.38
2022-10-20T21:25:51.554Z,94.72
2022-10-20T21:28:53.295Z,87.90
2022-10-20T21:31:54.702Z,100.00
2022-10-20T21:34:56.095Z,106.38
2022-10-20T21:37:57.504Z,106.25
2022-10-20T21:41:29.739Z,108.90
2022-10-20T21:44:31.354Z,97.88
2022-10-20T21:47:32.812Z,98.90
2022-10-20T21:50:37.093Z,97.43
2022-10-20T21:53:39.288Z,99.32
2022-10-20T21:56:41.806Z,94.35
2022-10-20T21:59:43.223Z,96.03
2022-10-20T22:02:48.165Z,92.28
2022-10-20T22:05:49.714Z,109.07
2022-10-20T22:08:53.570Z,102.82
2022-10-20T22:11:56.421Z,88.72
2022-10-20T22:14:57.815Z,100.70
2022-10-20T22:17:59.202Z,96.80
2022-10-20T22:21:08.664Z,99.38
2022-10-20T22:24:14.436Z,90.88
2022-10-20T22:27:25.350Z,95.88
2022-10-20T22:30:37.275Z,94.07
2022-10-20T22:33:38.678Z,101.18
2022-10-20T22:36:40.445Z,97.93
2022-10-20T22:39:41.860Z,98.10
2022-10-20T22:42:43.335Z,110.97
2022-10-20T22:45:44.720Z,92.75
2022-10-20T22:48:46.283Z,97.57
2022-10-20T22:51:47.808Z,94.03
2022-10-20T22:54:49.215Z,102.68
2022-10-20T22:57:51.870Z,104.03
2022-10-20T23:00:53.364Z,98.13
2022-10-20T23:03:54.794Z,107.72
2022-10-20T23:10:07.239Z,93.25
2022-10-20T23:13:08.653Z,112.35
2022-10-20T23:16:11.133Z,101.63
2022-10-20T23:19:13.038Z,107.40
2022-10-20T23:22:14.504Z,90.63
2022-10-20T23:25:16.090Z,93.82
2022-10-20T23:28:18.621Z,94.07
2022-10-20T23:31:21.707Z,101.72
2022-10-20T23:34:23.377Z,101.20
2022-10-20T23:37:24.808Z,94.90
2022-10-20T23:40:26.236Z,90.43
2022-10-20T23:43:27.701Z,95.55
2022-10-20T23:46:29.143Z,96.25
2022-10-20T23:49:30.578Z,91.60
2022-10-20T23:52:32.059Z,92.82
2022-10-20T23:55:33.521Z,88.05
2022-10-20T23:58:35.372Z,89.78
